Time;durP1;ratioP1;P1;durP2;ratioP2;P2;SDS_P1;SDS_P2;PMS_P1;PMS_P2;Temp;Humidity;BMP_temperature;BMP_pressure;BME280_temperature;BME280_humidity;BME280_pressure;Samples;Min_cycle;Max_cycle;Signal;HPM_P1;HPM_P2
2022/07/09 00:08:57;;;;;;;7.50;2.30;;;;;;;15.83;65.05;99281.48;447617;1268;96025;-41
2022/07/09 00:19:05;;;;;;;5.40;2.00;;;;;;;15.68;65.00;99285.52;447884;1265;112668;-41
2022/07/09 00:29:12;;;;;;;4.70;2.00;;;;;;;15.48;65.17;99295.88;447791;1265;109244;-41
2022/07/09 00:39:19;;;;;;;6.40;2.10;;;;;;;15.28;65.14;99295.80;447695;1265;108784;-41
2022/07/09 00:49:28;;;;;;;3.20;1.80;;;;;;;15.16;65.32;99290.17;447771;1266;96110;-41
2022/07/09 00:59:37;;;;;;;4.50;2.30;;;;;;;15.09;65.66;99290.38;447741;1265;96193;-41
2022/07/09 01:09:43;;;;;;;;;;;;;;;14.97;65.92;99290.14;447862;1255;111294;-42
2022/07/09 01:19:50;;;;;;;5.80;2.70;;;;;;;14.75;66.05;99294.52;447635;1268;108809;-41
2022/07/09 01:29:57;;;;;;;8.70;3.30;;;;;;;14.64;66.28;99287.77;447618;1268;108465;-41
2022/07/09 01:40:04;;;;;;;8.00;2.50;;;;;;;14.70;66.65;99286.45;447477;1269;96879;-41
2022/07/09 01:50:12;;;;;;;7.70;2.10;;;;;;;14.79;66.70;99277.59;447621;1268;96390;-41
2022/07/09 02:00:19;;;;;;;7.50;2.60;;;;;;;14.61;66.81;99272.48;447714;1268;112405;-42
2022/07/09 02:10:26;;;;;;;7.10;2.80;;;;;;;14.28;66.94;99272.35;447660;1268;108944;-41
2022/07/09 02:20:34;;;;;;;8.90;3.20;;;;;;;13.97;67.17;99261.60;447620;1266;108883;-42
2022/07/09 02:30:41;;;;;;;8.90;2.60;;;;;;;13.79;67.61;99248.77;447568;1268;96215;-41
2022/07/09 02:40:48;;;;;;;5.80;3.30;;;;;;;13.78;67.94;99244.33;447538;1269;96441;-43
2022/07/09 02:50:56;;;;;;;11.90;2.60;;;;;;;13.87;68.49;99237.74;447651;1268;112419;-42
2022/07/09 03:01:05;;;;;;;6.40;2.60;;;;;;;13.98;68.79;99239.09;447706;1268;108834;-41
2022/07/09 03:11:12;;;;;;;4.00;2.00;;;;;;;14.01;69.20;99236.58;447397;1270;108754;-43
2022/07/09 03:21:20;;;;;;;3.00;1.10;;;;;;;14.20;69.61;99227.14;447581;1268;95934;-42
2022/07/09 03:31:27;;;;;;;8.60;1.50;;;;;;;14.52;69.64;99224.00;447703;1268;96111;-42
2022/07/09 03:41:34;;;;;;;3.90;1.50;;;;;;;14.87;69.65;99217.98;447352;1269;112522;-42
2022/07/09 03:51:42;;;;;;;4.60;2.00;;;;;;;15.07;69.55;99207.14;447643;1268;108616;-42
2022/07/09 04:02:08;;;;;;;5.40;2.40;;;;;;;15.06;69.68;99202.23;447659;1268;107095;-42
2022/07/09 04:12:19;;;;;;;7.80;3.90;;;;;;;15.06;69.78;99197.16;447664;1268;96696;-42
2022/07/09 04:22:26;;;;;;;13.20;3.10;;;;;;;15.10;69.78;99195.73;447371;1269;95736;-42
2022/07/09 04:42:43;;;;;;;15.50;2.70;;;;;;;15.41;69.79;99198.52;447692;1267;109654;-42
2022/07/09 04:52:50;;;;;;;5.30;2.60;;;;;;;15.58;69.73;99193.91;447333;1269;108918;-42
2022/07/09 05:02:57;;;;;;;7.40;3.20;;;;;;;15.79;69.67;99192.80;447662;1266;96017;-42
2022/07/09 05:13:05;;;;;;;3.20;2.00;;;;;;;17.17;69.77;99191.14;447368;1269;95702;-42
2022/07/09 05:23:12;;;;;;;9.20;2.00;;;;;;;20.20;68.06;99192.11;447315;1269;112843;-42
2022/07/09 05:33:19;;;;;;;6.30;1.80;;;;;;;21.58;65.88;99191.61;447379;1269;107835;-41
2022/07/09 05:43:26;;;;;;;4.00;2.20;;;;;;;21.49;64.18;99187.59;447386;1269;108996;-41
2022/07/09 05:53:33;;;;;;;4.50;1.70;;;;;;;20.84;63.05;99179.58;447308;1268;96146;-40
2022/07/09 06:03:40;;;;;;;10.80;2.80;;;;;;;20.33;63.18;99178.16;447408;1269;96093;-40
2022/07/09 06:13:48;;;;;;;11.70;2.80;;;;;;;21.02;62.87;99161.61;447367;1269;112418;-41
2022/07/09 06:23:55;;;;;;;10.50;2.50;;;;;;;21.53;62.09;99158.58;447346;1269;108925;-42
2022/07/09 06:34:02;;;;;;;4.70;2.50;;;;;;;21.90;61.60;99144.14;447680;1267;107780;-43
2022/07/09 06:44:08;;;;;;;;;;;;;;;22.07;60.52;99133.90;447684;1267;96195;-42
2022/07/09 06:54:15;;;;;;;4.60;2.00;;;;;;;22.14;60.45;99121.91;447716;1268;95939;-42
2022/07/09 07:04:22;;;;;;;6.00;1.70;;;;;;;23.53;59.56;99118.98;447351;1269;112476;-42
2022/07/09 07:14:29;;;;;;;5.70;1.90;;;;;;;23.15;58.08;99120.34;447412;1269;108770;-42
2022/07/09 07:24:37;;;;;;;5.00;2.20;;;;;;;23.36;57.89;99108.52;447453;1269;107622;-41
2022/07/09 07:34:42;;;;;;;;;;;;;;;24.04;56.69;99100.78;447675;1267;95816;-42
2022/07/09 07:44:49;;;;;;;11.10;3.80;;;;;;;23.41;56.29;99098.45;447500;1268;95920;-41
2022/07/09 07:54:56;;;;;;;7.40;2.30;;;;;;;23.14;56.03;99097.90;447412;1268;112448;-41
2022/07/09 08:05:04;;;;;;;4.60;1.90;;;;;;;22.71;56.12;99095.10;447404;1268;108841;-41
2022/07/09 08:15:12;;;;;;;3.00;2.10;;;;;;;23.06;55.71;99096.58;447677;1265;108805;-42
2022/07/09 08:25:19;;;;;;;12.00;2.70;;;;;;;22.73;55.22;99091.41;447637;1267;95790;-41
2022/07/09 08:35:26;;;;;;;7.10;2.20;;;;;;;22.90;54.82;99086.77;447704;1268;95856;-41
2022/07/09 08:45:32;;;;;;;;;;;;;;;22.62;54.47;99090.95;447724;1268;112417;-41
2022/07/09 08:55:40;;;;;;;4.30;2.00;;;;;;;22.68;54.58;99086.87;447352;1268;383568;-42
2022/07/09 09:06:00;;;;;;;3.90;1.60;;;;;;;23.17;53.76;99076.11;447697;1268;108853;-42
2022/07/09 09:16:10;;;;;;;2.50;1.20;;;;;;;23.63;52.99;99060.89;447657;1267;96270;-42
2022/07/09 09:26:19;;;;;;;4.80;1.90;;;;;;;22.73;52.06;99062.77;447657;1268;96107;-41
2022/07/09 09:36:33;;;;;;;5.00;2.00;;;;;;;22.30;52.42;99052.34;447640;1267;112395;-42
2022/07/09 09:46:49;;;;;;;2.90;2.00;;;;;;;23.34;52.32;99035.27;447496;1269;108515;-42
2022/07/09 09:56:59;;;;;;;6.20;1.70;;;;;;;23.84;50.95;99026.01;447671;1266;109310;-42
2022/07/09 10:07:08;;;;;;;4.50;1.20;;;;;;;23.00;49.94;99026.30;447699;1267;96055;-41
2022/07/09 10:17:18;;;;;;;2.20;1.30;;;;;;;23.36;49.92;99003.01;447521;1270;96861;-41
2022/07/09 10:27:25;;;;;;;4.00;1.00;;;;;;;23.66;48.64;99001.17;447661;1268;112510;-42
2022/07/09 10:37:33;;;;;;;;;;;;;;;23.95;47.44;98992.27;447648;1268;108826;-42
2022/07/09 10:47:40;;;;;;;3.10;1.30;;;;;;;24.05;46.63;98981.20;447680;1268;108416;-41
2022/07/09 10:57:48;;;;;;;4.00;1.30;;;;;;;24.52;45.05;98972.08;447666;1268;96055;-42
2022/07/09 11:08:08;;;;;;;3.60;1.30;;;;;;;23.81;44.20;98975.84;447632;1268;95793;-42
2022/07/09 11:18:15;;;;;;;2.00;0.90;;;;;;;23.61;44.55;98968.82;447580;1269;112341;-41
2022/07/09 11:28:26;;;;;;;2.30;1.00;;;;;;;24.04;43.75;98958.47;447645;1267;109217;-41
2022/07/09 11:38:34;;;;;;;2.70;1.10;;;;;;;24.11;43.01;98951.64;447659;1268;108790;-41
2022/07/09 11:58:58;;;;;;;1.90;1.10;;;;;;;24.14;41.44;98936.98;447514;1269;96047;-41
2022/07/09 12:09:06;;;;;;;2.50;1.10;;;;;;;23.98;40.88;98938.42;447620;1267;112446;-42
2022/07/09 12:19:12;;;;;;;2.50;0.80;;;;;;;24.07;40.82;98931.23;447681;1268;107880;-41
2022/07/09 12:29:19;;;;;;;1.60;0.80;;;;;;;24.24;38.82;98921.48;447568;1268;108826;-41
2022/07/09 12:39:27;;;;;;;2.50;1.20;;;;;;;24.09;38.36;98911.13;447598;1268;95701;-41
2022/07/09 12:49:33;;;;;;;2.40;1.00;;;;;;;23.81;38.79;98904.37;447664;1268;96494;-41
2022/07/09 12:59:40;;;;;;;6.70;1.20;;;;;;;23.94;38.79;98894.84;447629;1268;110310;-42
2022/07/09 13:09:47;;;;;;;4.20;1.30;;;;;;;24.21;38.51;98886.59;447564;1269;108898;-42
2022/07/09 13:29:59;;;;;;;3.50;1.40;;;;;;;23.89;38.73;98877.02;447576;1268;95651;-41
2022/07/09 13:40:07;;;;;;;3.70;0.90;;;;;;;23.75;38.53;98867.03;447656;1268;95799;-41
2022/07/09 13:50:15;;;;;;;3.50;1.10;;;;;;;23.24;38.92;98865.12;447557;1269;112400;-42
2022/07/09 14:00:26;;;;;;;3.70;1.20;;;;;;;23.11;39.57;98858.45;447650;1268;109221;-42
2022/07/09 14:10:33;;;;;;;1.80;0.90;;;;;;;22.99;39.96;98855.02;447599;1269;108957;-42
2022/07/09 14:20:40;;;;;;;1.50;1.40;;;;;;;22.83;40.20;98839.80;447504;1268;95722;-42
2022/07/09 14:30:46;;;;;;;5.20;1.40;;;;;;;22.80;40.34;98839.55;447702;1268;96182;-43
2022/07/09 14:40:54;;;;;;;6.60;1.30;;;;;;;22.57;40.36;98839.60;447636;1268;112603;-41
2022/07/09 14:51:01;;;;;;;1.30;1.10;;;;;;;22.35;40.74;98835.94;447668;1268;107732;-41
2022/07/09 15:01:09;;;;;;;8.40;2.20;;;;;;;22.12;41.08;98830.20;447643;1268;108741;-42
2022/07/09 15:11:16;;;;;;;2.30;1.70;;;;;;;21.80;41.75;98834.70;447474;1269;95870;-42
2022/07/09 15:21:22;;;;;;;;;;;;;;;21.92;42.11;98817.70;447685;1268;95803;-42
2022/07/09 15:31:29;;;;;;;2.40;1.10;;;;;;;22.07;41.81;98818.70;447677;1268;112440;-42
2022/07/09 15:41:35;;;;;;;3.10;2.00;;;;;;;21.68;42.02;98814.66;447604;1269;108113;-44
2022/07/09 15:51:49;;;;;;;7.60;2.90;;;;;;;21.36;42.46;98808.23;447625;1268;108808;-42
2022/07/09 16:01:57;;;;;;;13.80;3.40;;;;;;;20.94;42.99;98794.92;447647;1268;96110;-42
2022/07/09 16:22:27;;;;;;;18.80;4.30;;;;;;;20.39;43.89;98786.97;447639;1268;111946;-42
2022/07/09 16:32:35;;;;;;;5.10;2.40;;;;;;;20.34;44.03;98778.27;447700;1268;108885;-42
2022/07/09 16:42:42;;;;;;;6.00;2.40;;;;;;;20.30;44.38;98774.88;447639;1268;108865;-43
2022/07/09 16:52:49;;;;;;;4.50;2.00;;;;;;;20.27;44.73;98770.79;447567;1269;95930;-44
2022/07/09 17:02:56;;;;;;;3.40;2.40;;;;;;;20.59;44.86;98759.45;447743;1268;95984;-42
2022/07/09 17:23:09;;;;;;;7.40;2.10;;;;;;;20.63;44.90;98747.04;447711;1268;108893;-42
2022/07/09 17:33:16;;;;;;;15.80;2.50;;;;;;;20.30;45.04;98748.27;447683;1268;107976;-42
2022/07/09 17:43:21;;;;;;;4.70;2.10;;;;;;;20.08;45.47;98745.05;447667;1268;95685;-42
2022/07/09 17:53:31;;;;;;;6.00;1.80;;;;;;;19.90;45.90;98744.95;447767;1268;95906;-42
2022/07/09 18:03:40;;;;;;;4.20;1.90;;;;;;;19.73;46.13;98740.55;447334;1269;112331;-42
2022/07/09 18:13:47;;;;;;;7.00;2.50;;;;;;;19.53;46.69;98740.55;447409;1269;107155;-41
2022/07/09 18:23:55;;;;;;;3.10;2.70;;;;;;;19.29;47.20;98741.11;447706;1268;108776;-42
2022/07/09 18:34:09;;;;;;;4.30;2.30;;;;;;;19.00;47.68;98741.50;447680;1267;95705;-42
2022/07/09 18:44:17;;;;;;;5.90;2.50;;;;;;;18.71;48.36;98735.77;447363;1269;95738;-43
2022/07/09 18:54:24;;;;;;;5.50;3.50;;;;;;;18.38;49.03;98736.95;447311;1269;112185;-42
2022/07/09 19:04:32;;;;;;;4.00;2.80;;;;;;;18.03;49.54;98738.48;447718;1267;108904;-42
2022/07/09 19:14:38;;;;;;;;;;;;;;;17.70;50.37;98742.64;447687;1268;108830;-42
2022/07/09 19:24:45;;;;;;;4.00;2.60;;;;;;;17.37;50.87;98747.09;447746;1267;95851;-43
2022/07/09 19:34:53;;;;;;;5.20;3.30;;;;;;;17.06;51.45;98748.69;447748;1267;96073;-42
2022/07/09 19:45:00;;;;;;;5.00;3.30;;;;;;;16.74;51.95;98747.30;447354;1269;112494;-42
2022/07/09 19:55:07;;;;;;;5.90;3.50;;;;;;;16.53;52.79;98744.06;447797;1267;108001;-42
2022/07/09 20:05:15;;;;;;;7.20;2.60;;;;;;;16.42;53.50;98741.86;447326;1269;108693;-43
2022/07/09 20:15:22;;;;;;;5.90;3.10;;;;;;;16.53;53.80;98741.54;447267;1269;95756;-42
2022/07/09 20:25:29;;;;;;;6.00;3.50;;;;;;;16.70;54.25;98756.48;447777;1268;96104;-42
2022/07/09 20:35:36;;;;;;;4.70;4.00;;;;;;;16.79;54.72;98758.10;447706;1268;112043;-41
2022/07/09 20:45:42;;;;;;;7.30;3.90;;;;;;;16.64;54.82;98753.27;447656;1267;108269;-41
2022/07/09 20:55:49;;;;;;;8.80;3.80;;;;;;;16.46;55.03;98742.70;446755;1269;770497;-42
2022/07/09 21:05:56;;;;;;;6.40;3.70;;;;;;;16.29;55.58;98738.47;447731;1267;95997;-42
2022/07/09 21:16:03;;;;;;;6.70;2.90;;;;;;;16.27;55.97;98735.14;447371;1269;96233;-41
2022/07/09 21:26:11;;;;;;;4.60;3.80;;;;;;;16.23;56.27;98735.94;447372;1269;112132;-42
2022/07/09 21:36:18;;;;;;;6.00;3.90;;;;;;;16.34;56.67;98725.25;447458;1269;109053;-42
2022/07/09 21:46:25;;;;;;;7.50;4.40;;;;;;;16.39;57.03;98723.44;447416;1269;108925;-42
2022/07/09 21:56:32;;;;;;;7.80;4.90;;;;;;;16.37;57.30;98713.46;447707;1267;95956;-42
2022/07/09 22:06:38;;;;;;;8.00;5.10;;;;;;;16.38;57.71;98706.67;447671;1268;95694;-42
2022/07/09 22:16:48;;;;;;;6.70;4.60;;;;;;;16.34;57.75;98705.92;447647;1268;112459;-41
2022/07/09 22:26:55;;;;;;;10.20;4.70;;;;;;;16.05;58.26;98711.14;447611;1267;109002;-42
2022/07/09 22:37:03;;;;;;;9.20;5.50;;;;;;;15.83;58.71;98701.80;447590;1268;108857;-42
2022/07/09 22:47:10;;;;;;;6.40;5.80;;;;;;;15.68;59.11;98698.34;447463;1268;96455;-42
2022/07/09 22:57:17;;;;;;;10.90;6.70;;;;;;;15.47;59.45;98701.89;447620;1268;95847;-42
2022/07/09 23:17:45;;;;;;;8.20;5.20;;;;;;;15.04;60.33;98698.14;447428;1267;108887;-42
2022/07/09 23:27:52;;;;;;;5.70;4.80;;;;;;;15.04;60.90;98689.39;447613;1266;108844;-41
2022/07/09 23:37:59;;;;;;;10.60;6.20;;;;;;;15.08;61.47;98679.52;447675;1267;96014;-41
2022/07/09 23:48:07;;;;;;;8.30;6.60;;;;;;;15.03;61.79;98664.31;447496;1269;96061;-41
2022/07/09 23:58:14;;;;;;;6.80;5.50;;;;;;;15.05;62.01;98657.88;447354;1268;113584;-41
